Time;durP1;ratioP1;P1;durP2;ratioP2;P2;SDS_P1;SDS_P2;PMS_P1;PMS_P2;Temp;Humidity;BMP_temperature;BMP_pressure;BME280_temperature;BME280_humidity;BME280_pressure;Samples;Min_cycle;Max_cycle;Signal;HPM_P1;HPM_P2
2021/07/23 00:02:03;;;;;;;5.13;4.43;;;;;;;;;;3613722;39;20236;-80
2021/07/23 00:04:32;;;;;;;7.32;4.38;;;;;;;;;;3613012;39;20233;-83
2021/07/23 00:06:59;;;;;;;6.20;4.57;;;;;;;;;;3613430;39;20238;-80
2021/07/23 00:09:26;;;;;;;4.78;4.38;;;;;;;;;;3604854;39;20229;-81
2021/07/23 00:11:55;;;;;;;4.15;3.75;;;;;;;;;;3613673;39;20689;-80
2021/07/23 00:14:22;;;;;;;4.40;4.00;;;;;;;;;;3604871;39;20237;-82
2021/07/23 00:16:50;;;;;;;4.38;3.97;;;;;;;;;;3613577;39;20230;-82
2021/07/23 00:19:17;;;;;;;8.70;4.82;;;;;;;;;;3613440;39;20697;-81
2021/07/23 00:21:44;;;;;;;5.00;4.30;;;;;;;;;;3613567;39;20899;-79
2021/07/23 00:24:11;;;;;;;4.20;3.90;;;;;;;;;;3613587;39;20246;-80
2021/07/23 00:26:39;;;;;;;5.00;3.88;;;;;;;;;;3612977;39;20237;-80
2021/07/23 00:29:07;;;;;;;4.55;4.15;;;;;;;;;;3604630;39;20791;-81
2021/07/23 00:31:35;;;;;;;7.45;4.95;;;;;;;;;;3613492;39;20233;-82
2021/07/23 00:34:02;;;;;;;6.30;4.22;;;;;;;;;;3604562;39;20206;-82
2021/07/23 00:36:32;;;;;;;5.20;4.45;;;;;;;;;;3613454;39;20238;-84
2021/07/23 00:39:00;;;;;;;6.70;4.80;;;;;;;;;;3613358;39;20285;-82
2021/07/23 00:41:27;;;;;;;5.88;5.38;;;;;;;;;;3604863;39;20352;-82
2021/07/23 00:43:55;;;;;;;8.50;4.75;;;;;;;;;;3613384;39;20238;-80
2021/07/23 00:46:25;;;;;;;4.88;4.57;;;;;;;;;;3604562;39;20229;-81
2021/07/23 00:48:53;;;;;;;5.28;4.78;;;;;;;;;;3613459;39;20245;-79
2021/07/23 00:51:20;;;;;;;5.35;4.10;;;;;;;;;;3604262;39;20230;-80
2021/07/23 00:53:51;;;;;;;6.60;5.10;;;;;;;;;;3596443;39;20283;-81
2021/07/23 00:56:21;;;;;;;7.93;5.53;;;;;;;;;;3596099;39;20242;-80
2021/07/23 00:58:49;;;;;;;5.82;4.55;;;;;;;;;;3604500;39;20229;-80
2021/07/23 01:01:16;;;;;;;6.90;4.88;;;;;;;;;;3613281;39;20245;-81
2021/07/23 01:03:45;;;;;;;5.70;5.20;;;;;;;;;;3613332;39;20226;-80
2021/07/23 01:06:13;;;;;;;6.10;4.47;;;;;;;;;;3604495;39;20218;-80
2021/07/23 01:08:42;;;;;;;6.88;5.53;;;;;;;;;;3612598;39;20245;-81
2021/07/23 01:11:10;;;;;;;5.85;5.18;;;;;;;;;;3604047;39;20226;-80
2021/07/23 01:13:56;;;;;;;5.97;5.47;;;;;;;;;;3604462;39;20238;-82
2021/07/23 01:16:24;;;;;;;5.07;4.55;;;;;;;;;;3604489;39;20240;-81
2021/07/23 01:18:52;;;;;;;8.07;5.40;;;;;;;;;;3612308;39;20233;-82
2021/07/23 01:21:21;;;;;;;8.65;5.47;;;;;;;;;;3604213;39;20288;-80
2021/07/23 01:23:50;;;;;;;8.00;4.60;;;;;;;;;;3603905;39;20242;-79
2021/07/23 01:26:36;;;;;;;5.45;5.05;;;;;;;;;;3613064;39;20274;-80
2021/07/23 01:29:04;;;;;;;5.18;4.78;;;;;;;;;;3612695;39;20290;-81
2021/07/23 01:31:32;;;;;;;4.90;4.40;;;;;;;;;;3613155;39;20234;-88
2021/07/23 01:33:59;;;;;;;4.97;4.57;;;;;;;;;;3613030;39;20237;-83
2021/07/23 01:36:27;;;;;;;5.03;4.53;;;;;;;;;;3604356;39;20298;-81
2021/07/23 01:38:58;;;;;;;5.32;4.88;;;;;;;;;;3604272;39;20230;-81
2021/07/23 01:41:27;;;;;;;7.32;4.13;;;;;;;;;;3604223;39;20248;-81
2021/07/23 01:43:57;;;;;;;5.03;4.53;;;;;;;;;;3613122;39;20222;-80
2021/07/23 01:46:25;;;;;;;5.88;4.22;;;;;;;;;;3603924;39;20233;-84
2021/07/23 01:49:10;;;;;;;7.18;4.78;;;;;;;;;;3604128;39;20241;-81
2021/07/23 01:51:40;;;;;;;6.55;5.43;;;;;;;;;;3612991;39;20238;-81
2021/07/23 01:54:20;;;;;;;5.28;4.43;;;;;;;;;;3612663;39;20236;-81
2021/07/23 01:56:47;;;;;;;6.25;5.57;;;;;;;;;;3604183;39;20240;-81
2021/07/23 01:59:19;;;;;;;6.15;5.05;;;;;;;;;;3612940;39;20474;-81
2021/07/23 02:01:46;;;;;;;5.47;4.97;;;;;;;;;;3595850;39;20241;-81
2021/07/23 02:04:26;;;;;;;5.10;4.40;;;;;;;;;;3604424;39;20683;-82
2021/07/23 02:06:54;;;;;;;8.60;4.80;;;;;;;;;;3604150;39;20663;-80
2021/07/23 02:09:25;;;;;;;7.95;4.97;;;;;;;;;;3604176;39;20811;-80
2021/07/23 02:11:55;;;;;;;4.32;4.00;;;;;;;;;;3612829;39;20265;-82
2021/07/23 02:14:29;;;;;;;5.00;4.43;;;;;;;;;;3604344;39;20229;-80
2021/07/23 02:16:57;;;;;;;5.05;4.55;;;;;;;;;;3604176;39;20245;-81
2021/07/23 02:19:24;;;;;;;6.35;4.43;;;;;;;;;;3611686;39;20298;-81
2021/07/23 02:22:02;;;;;;;6.45;5.25;;;;;;;;;;3603854;39;20252;-80
2021/07/23 02:24:31;;;;;;;5.10;4.65;;;;;;;;;;3604250;39;20217;-81
2021/07/23 02:26:59;;;;;;;5.55;4.97;;;;;;;;;;3604076;39;20278;-81
2021/07/23 02:29:27;;;;;;;7.50;4.82;;;;;;;;;;3604028;39;20245;-81
2021/07/23 02:31:55;;;;;;;5.18;4.35;;;;;;;;;;3604168;39;20225;-80
2021/07/23 02:34:24;;;;;;;5.70;5.20;;;;;;;;;;3612715;39;20232;-81
2021/07/23 02:36:54;;;;;;;5.95;5.28;;;;;;;;;;3604079;39;20242;-82
2021/07/23 02:39:24;;;;;;;6.00;5.35;;;;;;;;;;3603943;39;20247;-80
2021/07/23 02:41:59;;;;;;;6.05;4.53;;;;;;;;;;3602412;39;20287;-81
2021/07/23 02:44:28;;;;;;;6.10;4.45;;;;;;;;;;3603944;39;20814;-82
2021/07/23 02:46:56;;;;;;;5.68;5.00;;;;;;;;;;3595572;39;20855;-83
2021/07/23 02:49:24;;;;;;;5.90;4.45;;;;;;;;;;3612133;39;20245;-81
2021/07/23 02:51:54;;;;;;;5.05;4.03;;;;;;;;;;3612671;39;20225;-81
2021/07/23 02:54:28;;;;;;;8.20;4.13;;;;;;;;;;3603230;39;20226;-80
2021/07/23 02:56:55;;;;;;;4.28;3.88;;;;;;;;;;3612478;39;20229;-80
2021/07/23 02:59:27;;;;;;;4.85;4.10;;;;;;;;;;3603602;39;20225;-80
2021/07/23 03:01:57;;;;;;;5.00;4.60;;;;;;;;;;3603990;39;20225;-84
2021/07/23 03:04:26;;;;;;;4.47;4.18;;;;;;;;;;3612613;39;20246;-80
2021/07/23 03:06:54;;;;;;;6.85;5.40;;;;;;;;;;3611275;39;20240;-80
2021/07/23 03:09:26;;;;;;;8.65;4.85;;;;;;;;;;3622531;39;20301;-81
2021/07/23 03:11:56;;;;;;;5.35;4.82;;;;;;;;;;3622639;39;20236;-80
2021/07/23 03:14:24;;;;;;;5.35;4.35;;;;;;;;;;3622675;39;20235;-81
2021/07/23 03:17:00;;;;;;;5.70;4.72;;;;;;;;;;3622231;39;20236;-81
2021/07/23 03:19:28;;;;;;;5.40;4.72;;;;;;;;;;3622552;39;20754;-81
2021/07/23 03:21:56;;;;;;;5.53;4.43;;;;;;;;;;3613431;39;20233;-79
2021/07/23 03:24:27;;;;;;;4.75;4.35;;;;;;;;;;3608373;39;20247;-81
2021/07/23 03:26:59;;;;;;;5.10;4.60;;;;;;;;;;3602194;39;20259;-80
2021/07/23 03:29:28;;;;;;;7.47;5.10;;;;;;;;;;3603139;39;20632;-81
2021/07/23 03:31:55;;;;;;;5.43;5.03;;;;;;;;;;3620711;39;20819;-83
2021/07/23 03:34:30;;;;;;;5.72;5.10;;;;;;;;;;3615398;39;20624;-79
2021/07/23 03:37:00;;;;;;;6.03;5.53;;;;;;;;;;3615409;39;20233;-79
2021/07/23 03:39:46;;;;;;;4.93;4.53;;;;;;;;;;3615190;39;20272;-80
2021/07/23 03:42:18;;;;;;;5.43;4.35;;;;;;;;;;3598550;39;20234;-79
2021/07/23 03:45:01;;;;;;;6.03;4.85;;;;;;;;;;3605410;39;20647;-79
2021/07/23 03:47:29;;;;;;;5.55;5.07;;;;;;;;;;3613775;39;20236;-80
2021/07/23 03:50:00;;;;;;;5.45;4.97;;;;;;;;;;3613160;39;20720;-78
2021/07/23 03:52:27;;;;;;;4.85;4.45;;;;;;;;;;3613905;39;20240;-80
2021/07/23 03:55:14;;;;;;;4.95;4.55;;;;;;;;;;3613779;39;20307;-80
2021/07/23 03:57:43;;;;;;;5.93;5.32;;;;;;;;;;3604933;39;20249;-79
2021/07/23 04:00:11;;;;;;;9.02;8.23;;;;;;;;;;3613681;39;20241;-79
2021/07/23 04:02:45;;;;;;;6.43;5.82;;;;;;;;;;3613896;39;20241;-80
2021/07/23 04:05:15;;;;;;;7.22;4.85;;;;;;;;;;3613688;39;20238;-79
2021/07/23 04:07:46;;;;;;;6.15;5.00;;;;;;;;;;3604998;39;20237;-78
2021/07/23 04:10:14;;;;;;;5.15;4.75;;;;;;;;;;3613309;39;20248;-80
2021/07/23 04:12:42;;;;;;;4.47;4.07;;;;;;;;;;3605029;39;20257;-80
2021/07/23 04:15:11;;;;;;;6.13;5.43;;;;;;;;;;3604971;39;20245;-83
2021/07/23 04:17:58;;;;;;;5.03;4.60;;;;;;;;;;3613534;39;20258;-79
2021/07/23 04:20:29;;;;;;;5.55;5.05;;;;;;;;;;3614022;39;20232;-80
2021/07/23 04:22:56;;;;;;;6.30;4.68;;;;;;;;;;3623796;39;20294;-78
2021/07/23 04:25:25;;;;;;;8.20;4.70;;;;;;;;;;3623747;39;20222;-79
2021/07/23 04:27:54;;;;;;;5.35;4.85;;;;;;;;;;3614910;39;20245;-80
2021/07/23 04:30:30;;;;;;;6.28;4.53;;;;;;;;;;3615002;39;20229;-79
2021/07/23 04:33:30;;;;;;;5.25;4.68;;;;;;;;;;3600974;39;20518;-81
2021/07/23 04:36:30;;;;;;;8.40;7.70;;;;;;;;;;3623425;39;20241;-81
2021/07/23 04:39:03;;;;;;;7.07;5.40;;;;;;;;;;3614877;39;20252;-80
2021/07/23 04:41:31;;;;;;;7.95;5.43;;;;;;;;;;3614919;39;20258;-79
2021/07/23 04:43:59;;;;;;;5.65;5.15;;;;;;;;;;3623270;39;20241;-79
2021/07/23 04:46:28;;;;;;;4.70;4.13;;;;;;;;;;3614881;39;20319;-79
2021/07/23 04:48:56;;;;;;;7.63;4.30;;;;;;;;;;3623527;39;20226;-79
2021/07/23 04:51:35;;;;;;;6.20;4.32;;;;;;;;;;3614846;39;20224;-81
2021/07/23 04:54:21;;;;;;;7.28;5.03;;;;;;;;;;3623286;39;20241;-80
2021/07/23 04:57:28;;;;;;;6.30;4.40;;;;;;;;;;3621939;39;20245;-77
2021/07/23 04:59:57;;;;;;;4.38;3.97;;;;;;;;;;3609394;39;20275;-78
2021/07/23 05:02:24;;;;;;;4.70;4.30;;;;;;;;;;3608240;39;20237;-77
2021/07/23 05:04:52;;;;;;;6.30;4.35;;;;;;;;;;3618726;39;20659;-77
2021/07/23 05:07:21;;;;;;;6.07;4.43;;;;;;;;;;3608631;39;20229;-77
2021/07/23 05:09:48;;;;;;;5.40;4.90;;;;;;;;;;3617948;39;20237;-77
2021/07/23 05:12:16;;;;;;;5.72;5.18;;;;;;;;;;3608271;39;20292;-77
2021/07/23 05:14:44;;;;;;;5.35;4.80;;;;;;;;;;3608403;39;20253;-76
2021/07/23 05:17:12;;;;;;;5.32;4.82;;;;;;;;;;3616991;39;20225;-78
2021/07/23 05:19:39;;;;;;;4.88;4.32;;;;;;;;;;3602512;40;20254;-78
2021/07/23 05:22:07;;;;;;;5.72;4.88;;;;;;;;;;3608010;40;20265;-77
2021/07/23 05:24:35;;;;;;;7.28;5.10;;;;;;;;;;3607227;40;20238;-77
2021/07/23 05:27:03;;;;;;;8.18;5.20;;;;;;;;;;3599227;40;20242;-77
2021/07/23 05:29:30;;;;;;;5.32;4.82;;;;;;;;;;3607626;40;20241;-78
2021/07/23 05:31:57;;;;;;;5.10;4.60;;;;;;;;;;3615067;39;20237;-76
2021/07/23 05:34:25;;;;;;;6.60;5.07;;;;;;;;;;3608205;39;20241;-77
2021/07/23 05:36:52;;;;;;;6.80;5.32;;;;;;;;;;3613318;39;20240;-77
2021/07/23 05:39:19;;;;;;;5.88;5.25;;;;;;;;;;3616256;39;20265;-79
2021/07/23 05:41:48;;;;;;;8.57;5.65;;;;;;;;;;3608982;39;20253;-77
2021/07/23 05:44:15;;;;;;;6.70;5.97;;;;;;;;;;3617769;39;20604;-78
2021/07/23 05:46:43;;;;;;;10.80;5.47;;;;;;;;;;3617907;39;20248;-78
2021/07/23 05:49:10;;;;;;;9.50;4.93;;;;;;;;;;3618090;39;20248;-78
2021/07/23 05:51:37;;;;;;;6.38;5.18;;;;;;;;;;3613179;39;20238;-77
2021/07/23 05:54:05;;;;;;;8.75;5.43;;;;;;;;;;3606779;39;20217;-77
2021/07/23 05:56:32;;;;;;;6.88;4.78;;;;;;;;;;3608676;39;20322;-77
2021/07/23 05:59:01;;;;;;;6.65;5.95;;;;;;;;;;3608774;40;20238;-77
2021/07/23 06:01:28;;;;;;;7.75;6.20;;;;;;;;;;3611506;40;20241;-79
2021/07/23 06:03:55;;;;;;;7.10;4.47;;;;;;;;;;3603204;40;20244;-77
2021/07/23 06:06:23;;;;;;;6.68;5.63;;;;;;;;;;3609332;40;20248;-77
2021/07/23 06:08:50;;;;;;;7.03;5.40;;;;;;;;;;3610522;40;20263;-78
2021/07/23 06:11:17;;;;;;;9.02;5.45;;;;;;;;;;3617720;39;20225;-78
2021/07/23 06:13:46;;;;;;;5.57;5.07;;;;;;;;;;3603990;39;20230;-81
2021/07/23 06:16:15;;;;;;;6.22;4.40;;;;;;;;;;3612876;39;20253;-80
2021/07/23 06:18:42;;;;;;;8.70;5.82;;;;;;;;;;3605803;39;20281;-81
2021/07/23 06:21:10;;;;;;;6.45;5.88;;;;;;;;;;3616983;39;20344;-79
2021/07/23 06:23:38;;;;;;;10.13;5.22;;;;;;;;;;3606702;39;20257;-77
2021/07/23 06:26:05;;;;;;;5.80;4.32;;;;;;;;;;3611698;39;20578;-77
2021/07/23 06:28:33;;;;;;;8.43;5.22;;;;;;;;;;3613525;39;20513;-80
2021/07/23 06:31:02;;;;;;;4.88;4.38;;;;;;;;;;3610746;40;20257;-77
2021/07/23 06:33:31;;;;;;;5.85;5.20;;;;;;;;;;3608150;39;20237;-78
2021/07/23 06:35:58;;;;;;;9.45;5.13;;;;;;;;;;3609785;39;20549;-77
2021/07/23 06:38:26;;;;;;;5.63;5.07;;;;;;;;;;3607498;39;20214;-76
2021/07/23 06:40:53;;;;;;;5.70;5.20;;;;;;;;;;3613769;39;20249;-77
2021/07/23 06:43:20;;;;;;;5.78;5.28;;;;;;;;;;3608039;39;20650;-78
2021/07/23 06:45:57;;;;;;;9.07;5.25;;;;;;;;;;3609390;39;20241;-77
2021/07/23 06:48:25;;;;;;;10.30;6.45;;;;;;;;;;3599331;40;20226;-78
2021/07/23 06:50:54;;;;;;;6.20;5.15;;;;;;;;;;3611532;39;20535;-77
2021/07/23 06:53:22;;;;;;;7.10;5.00;;;;;;;;;;3616951;39;20540;-79
2021/07/23 06:55:52;;;;;;;4.53;4.13;;;;;;;;;;3606414;39;20217;-78
2021/07/23 06:58:22;;;;;;;4.53;4.05;;;;;;;;;;3584493;40;20243;-78
2021/07/23 07:00:50;;;;;;;5.13;4.43;;;;;;;;;;3601440;40;20242;-78
2021/07/23 07:03:20;;;;;;;5.55;4.28;;;;;;;;;;3609011;40;20234;-78
2021/07/23 07:05:52;;;;;;;5.65;4.10;;;;;;;;;;3608642;39;20261;-78
2021/07/23 07:08:21;;;;;;;4.65;3.90;;;;;;;;;;3599332;40;20257;-79
2021/07/23 07:11:03;;;;;;;3.75;3.42;;;;;;;;;;3599970;40;20738;-78
2021/07/23 07:13:31;;;;;;;6.25;3.60;;;;;;;;;;3617810;39;20268;-78
2021/07/23 07:16:04;;;;;;;4.15;3.72;;;;;;;;;;3603392;40;20300;-78
2021/07/23 07:18:32;;;;;;;4.45;4.05;;;;;;;;;;3612101;39;20248;-79
2021/07/23 07:21:00;;;;;;;9.07;6.80;;;;;;;;;;3597342;40;20274;-78
2021/07/23 07:23:41;;;;;;;5.93;4.47;;;;;;;;;;3611989;39;20551;-78
2021/07/23 07:26:09;;;;;;;10.20;3.95;;;;;;;;;;3607512;39;20249;-79
2021/07/23 07:28:39;;;;;;;8.27;4.05;;;;;;;;;;3610356;39;20245;-80
2021/07/23 07:31:09;;;;;;;3.92;3.47;;;;;;;;;;3620373;39;20280;-79
2021/07/23 07:33:36;;;;;;;6.28;4.20;;;;;;;;;;3612765;39;20322;-78
2021/07/23 07:36:04;;;;;;;6.47;4.00;;;;;;;;;;3607504;40;20245;-79
2021/07/23 07:38:31;;;;;;;6.78;3.35;;;;;;;;;;3607700;40;20291;-79
2021/07/23 07:41:00;;;;;;;4.78;3.70;;;;;;;;;;3607284;40;20298;-78
2021/07/23 07:43:27;;;;;;;6.85;3.55;;;;;;;;;;3607054;40;20238;-77
2021/07/23 07:45:57;;;;;;;5.82;4.55;;;;;;;;;;3606823;40;20229;-78
2021/07/23 07:48:25;;;;;;;10.50;5.57;;;;;;;;;;3606941;40;20325;-79
2021/07/23 07:50:54;;;;;;;4.03;3.63;;;;;;;;;;3598818;40;20237;-79
2021/07/23 07:53:21;;;;;;;5.03;4.22;;;;;;;;;;3595950;39;20242;-79
2021/07/23 07:55:49;;;;;;;5.25;3.42;;;;;;;;;;3600920;39;20325;-78
2021/07/23 07:58:18;;;;;;;4.85;3.42;;;;;;;;;;3608304;39;20241;-79
2021/07/23 08:00:45;;;;;;;4.90;3.67;;;;;;;;;;3611521;39;20241;-78
2021/07/23 08:03:13;;;;;;;4.28;3.55;;;;;;;;;;3598288;40;20273;-80
2021/07/23 08:05:40;;;;;;;5.80;4.05;;;;;;;;;;3598280;40;20420;-78
2021/07/23 08:08:10;;;;;;;5.25;4.03;;;;;;;;;;3607910;40;20241;-79
2021/07/23 08:10:37;;;;;;;7.18;4.03;;;;;;;;;;3599268;40;20261;-78
2021/07/23 08:13:05;;;;;;;5.43;3.30;;;;;;;;;;3596129;39;20248;-79
2021/07/23 08:15:36;;;;;;;6.85;4.18;;;;;;;;;;3618393;39;20236;-78
2021/07/23 08:18:04;;;;;;;4.47;3.25;;;;;;;;;;3609949;39;20209;-79
2021/07/23 08:20:32;;;;;;;6.60;3.38;;;;;;;;;;3610861;39;20252;-78
2021/07/23 08:22:59;;;;;;;4.93;3.00;;;;;;;;;;3600107;40;20242;-80
2021/07/23 08:25:27;;;;;;;4.88;3.33;;;;;;;;;;3605619;39;20221;-78
2021/07/23 08:27:54;;;;;;;3.05;2.75;;;;;;;;;;3603234;39;20252;-79
2021/07/23 08:30:22;;;;;;;3.25;2.33;;;;;;;;;;3610700;39;20321;-78
2021/07/23 08:32:51;;;;;;;4.43;3.40;;;;;;;;;;3616642;39;20213;-80
2021/07/23 08:35:18;;;;;;;4.70;2.75;;;;;;;;;;3610599;40;20240;-84
2021/07/23 08:37:45;;;;;;;9.75;8.32;;;;;;;;;;3614978;39;20280;-80
2021/07/23 08:40:17;;;;;;;5.43;4.45;;;;;;;;;;3612554;39;20244;-80
2021/07/23 08:42:46;;;;;;;5.25;3.40;;;;;;;;;;3618949;39;20672;-80
2021/07/23 08:45:13;;;;;;;9.48;3.15;;;;;;;;;;3610826;39;20230;-81
2021/07/23 08:47:40;;;;;;;3.60;3.10;;;;;;;;;;3612615;39;20233;-79
2021/07/23 08:50:10;;;;;;;4.13;3.08;;;;;;;;;;3621418;39;20249;-79
2021/07/23 08:52:41;;;;;;;4.05;3.22;;;;;;;;;;3620850;39;20243;-78
2021/07/23 08:55:10;;;;;;;6.90;2.95;;;;;;;;;;3639632;22;20245;-40
2021/07/23 08:57:37;;;;;;;6.28;3.60;;;;;;;;;;3594542;40;20241;-40
2021/07/23 09:00:08;;;;;;;4.03;2.75;;;;;;;;;;3589510;40;20234;-40
2021/07/23 09:02:53;;;;;;;3.67;3.38;;;;;;;;;;3589118;40;20295;-39
2021/07/23 09:05:23;;;;;;;2.40;2.20;;;;;;;;;;3595627;39;20242;-43
2021/07/23 09:07:51;;;;;;;3.85;2.30;;;;;;;;;;3592239;40;20238;-38
2021/07/23 09:10:22;;;;;;;3.90;3.08;;;;;;;;;;3593727;40;20223;-38
2021/07/23 09:12:50;;;;;;;4.93;2.55;;;;;;;;;;3588774;40;20234;-38
2021/07/23 09:15:19;;;;;;;3.65;2.85;;;;;;;;;;3580376;40;20297;-39
2021/07/23 09:17:47;;;;;;;3.45;2.53;;;;;;;;;;3588420;40;20246;-39
2021/07/23 09:20:14;;;;;;;2.03;1.77;;;;;;;;;;3588434;40;20238;-38
2021/07/23 09:22:47;;;;;;;4.68;2.10;;;;;;;;;;3579185;40;20246;-40
2021/07/23 09:25:15;;;;;;;2.58;2.28;;;;;;;;;;3588401;40;20246;-38
2021/07/23 09:27:43;;;;;;;4.13;2.42;;;;;;;;;;3580390;40;20234;-38
2021/07/23 09:30:12;;;;;;;2.22;2.03;;;;;;;;;;3586140;40;20239;-38
2021/07/23 09:32:40;;;;;;;2.08;1.88;;;;;;;;;;3586024;40;20246;-37
2021/07/23 09:35:12;;;;;;;1.90;1.63;;;;;;;;;;3582651;40;20334;-38
2021/07/23 09:37:59;;;;;;;2.15;1.80;;;;;;;;;;3594069;40;20234;-38
2021/07/23 09:40:39;;;;;;;2.53;1.25;;;;;;;;;;3591826;40;20323;-39
2021/07/23 09:43:07;;;;;;;4.53;2.60;;;;;;;;;;3589709;40;20665;-38
2021/07/23 09:45:34;;;;;;;1.67;1.58;;;;;;;;;;3590943;40;20366;-38
2021/07/23 09:48:09;;;;;;;1.90;1.80;;;;;;;;;;3598324;40;20599;-38
2021/07/23 09:50:39;;;;;;;3.22;1.90;;;;;;;;;;3593348;40;20240;-38
2021/07/23 09:53:09;;;;;;;5.35;2.83;;;;;;;;;;3587728;40;20238;-38
2021/07/23 09:55:36;;;;;;;1.85;1.65;;;;;;;;;;3596453;40;20704;-38
2021/07/23 09:58:06;;;;;;;2.50;2.30;;;;;;;;;;3597655;40;20246;-39
2021/07/23 10:00:37;;;;;;;2.20;1.83;;;;;;;;;;3580995;40;20540;-38
2021/07/23 10:03:06;;;;;;;1.85;1.75;;;;;;;;;;3578948;40;20542;-38
2021/07/23 10:05:37;;;;;;;3.60;2.42;;;;;;;;;;3593038;40;20238;-38
2021/07/23 10:08:07;;;;;;;4.57;3.80;;;;;;;;;;3592510;40;20242;-38
2021/07/23 10:10:39;;;;;;;2.75;2.15;;;;;;;;;;3594046;40;20245;-38
2021/07/23 10:13:07;;;;;;;14.88;8.52;;;;;;;;;;3580052;40;20271;-37
2021/07/23 10:15:36;;;;;;;12.98;7.00;;;;;;;;;;3593873;40;20244;-37
2021/07/23 10:18:04;;;;;;;4.50;2.75;;;;;;;;;;3588150;40;20690;-38
2021/07/23 10:20:32;;;;;;;6.30;3.85;;;;;;;;;;3591893;40;20575;-38
2021/07/23 10:23:00;;;;;;;2.65;2.45;;;;;;;;;;3594051;40;20350;-39
2021/07/23 10:25:27;;;;;;;3.42;3.13;;;;;;;;;;3595626;40;20246;-39
2021/07/23 10:27:56;;;;;;;5.63;2.75;;;;;;;;;;3594734;40;20241;-39
2021/07/23 10:30:30;;;;;;;3.95;3.03;;;;;;;;;;3590074;40;20257;-38
2021/07/23 10:32:57;;;;;;;3.67;2.65;;;;;;;;;;3592692;40;20241;-39
2021/07/23 10:35:35;;;;;;;8.18;4.45;;;;;;;;;;3588504;40;20242;-38
2021/07/23 10:38:03;;;;;;;3.55;3.25;;;;;;;;;;3596250;40;20305;-40
2021/07/23 10:40:38;;;;;;;3.38;3.08;;;;;;;;;;3588571;40;20231;-38
2021/07/23 10:43:20;;;;;;;3.38;2.80;;;;;;;;;;3594073;40;20233;-39
2021/07/23 10:45:49;;;;;;;3.75;3.17;;;;;;;;;;3595171;40;20246;-39
2021/07/23 10:48:42;;;;;;;5.32;2.53;;;;;;;;;;3591102;40;20245;-39
2021/07/23 10:51:10;;;;;;;5.75;3.15;;;;;;;;;;3591530;40;20635;-39
2021/07/23 10:53:37;;;;;;;9.90;2.92;;;;;;;;;;3588342;40;20257;-39
2021/07/23 10:56:05;;;;;;;4.68;3.58;;;;;;;;;;3597470;40;20238;-40
2021/07/23 10:58:33;;;;;;;4.38;3.05;;;;;;;;;;3596381;40;20519;-39
2021/07/23 11:01:05;;;;;;;5.15;2.90;;;;;;;;;;3592034;40;20258;-39
2021/07/23 11:04:02;;;;;;;3.25;2.95;;;;;;;;;;3596224;40;20245;-39
2021/07/23 11:06:35;;;;;;;3.92;3.53;;;;;;;;;;3593127;40;20257;-38
2021/07/23 11:09:07;;;;;;;4.00;2.75;;;;;;;;;;3598093;40;20236;-39
2021/07/23 11:11:35;;;;;;;4.70;3.08;;;;;;;;;;3597837;40;20234;-39
2021/07/23 11:14:15;;;;;;;6.07;3.88;;;;;;;;;;3598007;40;20595;-38
2021/07/23 11:16:44;;;;;;;3.90;3.25;;;;;;;;;;3597781;40;20613;-40
2021/07/23 11:19:22;;;;;;;5.95;3.28;;;;;;;;;;3593616;40;20222;-39
2021/07/23 11:21:50;;;;;;;5.53;3.15;;;;;;;;;;3593717;40;20330;-39
2021/07/23 11:24:17;;;;;;;7.32;2.83;;;;;;;;;;3597752;40;20233;-39
2021/07/23 11:26:53;;;;;;;7.90;3.17;;;;;;;;;;3597543;40;20644;-38
2021/07/23 11:29:34;;;;;;;5.72;2.97;;;;;;;;;;3588352;40;20229;-38
2021/07/23 11:32:08;;;;;;;3.03;2.72;;;;;;;;;;3595452;40;20273;-38
2021/07/23 11:34:38;;;;;;;4.85;3.42;;;;;;;;;;3589942;40;20298;-41
2021/07/23 11:37:16;;;;;;;3.45;3.05;;;;;;;;;;3579871;40;20242;-39
2021/07/23 11:39:53;;;;;;;4.82;3.33;;;;;;;;;;3592483;40;20237;-39
2021/07/23 11:42:20;;;;;;;3.45;2.92;;;;;;;;;;3591866;40;20601;-38
2021/07/23 11:44:51;;;;;;;3.63;3.28;;;;;;;;;;3589461;40;20330;-38
2021/07/23 11:47:27;;;;;;;3.03;2.65;;;;;;;;;;3596841;40;20621;-39
2021/07/23 11:49:56;;;;;;;4.85;3.22;;;;;;;;;;3595455;40;20278;-38
2021/07/23 11:52:24;;;;;;;5.10;3.78;;;;;;;;;;3597698;39;20237;-39
2021/07/23 11:54:59;;;;;;;5.22;2.97;;;;;;;;;;3595085;39;20573;-40
2021/07/23 11:57:27;;;;;;;4.85;3.67;;;;;;;;;;3593806;40;20230;-39
2021/07/23 11:59:54;;;;;;;3.50;3.25;;;;;;;;;;3595170;40;20230;-39
2021/07/23 12:02:25;;;;;;;3.67;3.38;;;;;;;;;;3592796;40;20284;-38
2021/07/23 12:05:03;;;;;;;3.83;2.80;;;;;;;;;;3596737;40;20246;-39
2021/07/23 12:07:31;;;;;;;2.70;2.50;;;;;;;;;;3595808;40;20238;-47
2021/07/23 12:09:59;;;;;;;3.72;3.42;;;;;;;;;;3588927;40;20245;-39
2021/07/23 12:12:26;;;;;;;2.97;2.78;;;;;;;;;;3595081;40;20281;-39
2021/07/23 12:14:54;;;;;;;5.43;3.05;;;;;;;;;;3590221;40;20243;-38
2021/07/23 12:17:22;;;;;;;4.15;3.45;;;;;;;;;;3592861;40;20237;-39
2021/07/23 12:19:55;;;;;;;4.88;3.92;;;;;;;;;;3592355;39;20227;-39
2021/07/23 12:22:24;;;;;;;3.90;3.60;;;;;;;;;;3590710;40;20272;-38
2021/07/23 12:24:51;;;;;;;3.88;3.35;;;;;;;;;;3589373;40;20245;-39
2021/07/23 12:27:22;;;;;;;3.45;3.15;;;;;;;;;;3582414;40;20616;-39
2021/07/23 12:29:51;;;;;;;3.53;3.22;;;;;;;;;;3593282;40;20239;-41
2021/07/23 12:32:23;;;;;;;3.70;3.05;;;;;;;;;;3588893;40;20246;-39
2021/07/23 12:34:57;;;;;;;5.05;2.80;;;;;;;;;;3597723;40;20237;-39
2021/07/23 12:37:26;;;;;;;3.20;2.90;;;;;;;;;;3598221;40;20282;-38
2021/07/23 12:39:56;;;;;;;10.70;7.30;;;;;;;;;;3589278;40;20237;-38
2021/07/23 12:42:24;;;;;;;3.30;2.95;;;;;;;;;;3598612;40;20245;-38
2021/07/23 12:44:52;;;;;;;3.33;3.03;;;;;;;;;;3596765;39;20245;-39
2021/07/23 12:47:20;;;;;;;3.97;3.33;;;;;;;;;;3598660;40;20229;-38
2021/07/23 12:49:48;;;;;;;3.65;3.28;;;;;;;;;;3598590;40;20233;-38
2021/07/23 12:52:15;;;;;;;4.80;3.00;;;;;;;;;;3599025;40;20289;-38
2021/07/23 12:54:44;;;;;;;4.32;3.67;;;;;;;;;;3598643;40;20241;-39
2021/07/23 12:57:15;;;;;;;7.80;3.50;;;;;;;;;;3598349;40;20824;-39
2021/07/23 12:59:43;;;;;;;2.95;2.72;;;;;;;;;;3598800;40;20244;-39
2021/07/23 13:02:10;;;;;;;3.83;3.45;;;;;;;;;;3595055;39;20242;-39
2021/07/23 13:04:37;;;;;;;12.48;3.25;;;;;;;;;;3598348;39;20226;-39
2021/07/23 13:07:06;;;;;;;3.55;3.03;;;;;;;;;;3588406;40;20274;-38
2021/07/23 13:09:34;;;;;;;4.63;3.05;;;;;;;;;;3598304;40;20237;-39
2021/07/23 13:12:03;;;;;;;22.02;19.70;;;;;;;;;;3598457;40;20233;-39
2021/07/23 13:14:30;;;;;;;3.72;3.40;;;;;;;;;;3598656;40;20628;-41
2021/07/23 13:16:59;;;;;;;5.32;4.15;;;;;;;;;;3598554;40;20601;-39
2021/07/23 13:19:26;;;;;;;7.13;4.45;;;;;;;;;;3587674;40;20521;-39
2021/07/23 13:21:53;;;;;;;3.80;2.97;;;;;;;;;;3588319;40;20699;-39
2021/07/23 13:24:21;;;;;;;5.13;2.67;;;;;;;;;;3589210;40;20238;-39
2021/07/23 13:26:48;;;;;;;5.30;3.97;;;;;;;;;;3598398;40;20234;-39
2021/07/23 13:29:22;;;;;;;6.45;5.35;;;;;;;;;;3598631;40;20237;-40
2021/07/23 13:31:49;;;;;;;6.47;4.28;;;;;;;;;;3598298;40;20233;-39
2021/07/23 13:34:16;;;;;;;6.07;4.35;;;;;;;;;;3598167;40;20237;-38
2021/07/23 13:36:46;;;;;;;4.47;3.95;;;;;;;;;;3597468;39;20246;-39
2021/07/23 13:39:15;;;;;;;4.50;4.10;;;;;;;;;;3583213;40;20243;-39
2021/07/23 13:41:43;;;;;;;12.75;6.93;;;;;;;;;;3591814;40;20237;-40
2021/07/23 13:44:10;;;;;;;6.35;4.63;;;;;;;;;;3595626;40;20281;-39
2021/07/23 13:46:40;;;;;;;4.85;4.22;;;;;;;;;;3589600;40;20250;-40
2021/07/23 13:49:08;;;;;;;5.05;4.57;;;;;;;;;;3593016;40;20512;-40
2021/07/23 13:51:36;;;;;;;6.32;4.38;;;;;;;;;;3597193;40;20617;-39
2021/07/23 13:54:03;;;;;;;68.53;14.18;;;;;;;;;;3589318;40;20311;-40
2021/07/23 13:56:33;;;;;;;8.30;5.18;;;;;;;;;;3588635;40;20253;-40
2021/07/23 13:59:04;;;;;;;9.00;4.82;;;;;;;;;;3598531;40;20319;-40
2021/07/23 14:01:31;;;;;;;4.53;4.10;;;;;;;;;;3587812;40;20596;-39
2021/07/23 14:04:00;;;;;;;6.47;5.07;;;;;;;;;;3594412;39;20258;-40
2021/07/23 14:06:28;;;;;;;5.28;4.00;;;;;;;;;;3594336;40;20241;-40
2021/07/23 14:08:55;;;;;;;6.35;5.05;;;;;;;;;;3583969;40;20242;-39
2021/07/23 14:11:23;;;;;;;5.82;4.13;;;;;;;;;;3595838;40;20241;-40
2021/07/23 14:13:51;;;;;;;6.25;4.95;;;;;;;;;;3589467;40;20238;-40
2021/07/23 14:16:19;;;;;;;5.78;4.10;;;;;;;;;;3589445;40;20338;-39
2021/07/23 14:18:47;;;;;;;5.03;4.53;;;;;;;;;;3598186;40;20268;-39
2021/07/23 14:21:18;;;;;;;5.88;4.63;;;;;;;;;;3584937;40;20238;-40
2021/07/23 14:23:46;;;;;;;5.57;3.90;;;;;;;;;;3590025;40;20606;-39
2021/07/23 14:26:13;;;;;;;7.47;4.75;;;;;;;;;;3597318;40;20632;-40
2021/07/23 14:28:41;;;;;;;5.18;3.90;;;;;;;;;;3594959;40;20238;-39
2021/07/23 14:31:08;;;;;;;5.22;4.78;;;;;;;;;;3588079;40;20242;-40
2021/07/23 14:33:35;;;;;;;8.07;4.93;;;;;;;;;;3589003;40;20327;-40
2021/07/23 14:36:05;;;;;;;5.60;4.85;;;;;;;;;;3592030;40;20294;-41
2021/07/23 14:38:34;;;;;;;6.88;5.45;;;;;;;;;;3598298;40;20234;-40
2021/07/23 14:41:01;;;;;;;5.00;4.45;;;;;;;;;;3593187;40;20572;-40
2021/07/23 14:43:29;;;;;;;5.30;4.47;;;;;;;;;;3587900;40;20238;-40
2021/07/23 14:45:56;;;;;;;4.22;3.83;;;;;;;;;;3588592;40;20242;-40
2021/07/23 14:48:23;;;;;;;10.95;9.77;;;;;;;;;;3589130;40;20231;-40
2021/07/23 14:50:51;;;;;;;7.75;7.07;;;;;;;;;;3590472;40;20238;-40
2021/07/23 14:53:18;;;;;;;5.78;4.43;;;;;;;;;;3585572;40;20250;-40
2021/07/23 14:55:47;;;;;;;5.20;4.65;;;;;;;;;;3598434;40;20249;-39
2021/07/23 14:58:15;;;;;;;5.05;4.57;;;;;;;;;;3596086;40;20338;-39
2021/07/23 15:00:46;;;;;;;5.78;4.57;;;;;;;;;;3597978;39;20242;-39